createdAt,value
2018-04-26T00:02:04.574Z,1.70
2018-04-26T00:04:31.463Z,1.87
2018-04-26T00:06:58.148Z,1.83
2018-04-26T00:09:24.877Z,2.50
2018-04-26T00:11:51.684Z,3.30
2018-04-26T00:14:18.375Z,2.17
2018-04-26T00:16:45.067Z,2.37
2018-04-26T00:19:11.749Z,2.50
2018-04-26T00:21:38.440Z,1.80
2018-04-26T00:24:05.116Z,2.00
2018-04-26T00:26:31.868Z,1.60
2018-04-26T00:28:58.547Z,1.80
2018-04-26T00:31:25.487Z,2.10
2018-04-26T00:33:52.160Z,2.20
2018-04-26T00:36:18.988Z,2.00
2018-04-26T00:38:45.694Z,2.30
2018-04-26T00:41:12.444Z,1.73
2018-04-26T00:43:39.119Z,1.40
2018-04-26T00:46:05.808Z,2.20
2018-04-26T00:48:32.521Z,2.00
2018-04-26T00:50:59.186Z,2.20
2018-04-26T00:53:25.884Z,2.67
2018-04-26T00:55:52.554Z,2.00
2018-04-26T00:58:19.303Z,2.30
2018-04-26T01:00:45.974Z,2.90
2018-04-26T01:03:12.675Z,2.20
2018-04-26T01:05:39.343Z,1.50
2018-04-26T01:08:06.040Z,2.03
2018-04-26T01:10:32.736Z,1.97
2018-04-26T01:12:59.524Z,1.80
2018-04-26T01:15:26.244Z,1.90
2018-04-26T01:17:52.929Z,2.43
2018-04-26T01:20:19.596Z,1.70
2018-04-26T01:22:46.285Z,2.00
2018-04-26T01:25:13.009Z,3.07
2018-04-26T01:27:39.712Z,1.43
2018-04-26T01:30:06.464Z,1.80
2018-04-26T01:32:33.140Z,2.63
2018-04-26T01:34:59.818Z,2.00
2018-04-26T01:37:32.413Z,1.50
2018-04-26T01:39:59.103Z,2.60
2018-04-26T01:42:25.788Z,2.30
2018-04-26T01:44:52.485Z,2.30
2018-04-26T01:47:20.072Z,2.00
2018-04-26T01:49:46.751Z,2.67
2018-04-26T01:52:13.521Z,3.57
2018-04-26T01:54:40.188Z,2.50
2018-04-26T01:57:06.879Z,3.13
2018-04-26T01:59:33.588Z,2.90
2018-04-26T02:02:00.272Z,2.93
2018-04-26T02:04:26.967Z,3.57
2018-04-26T02:06:53.702Z,2.00
2018-04-26T02:09:20.416Z,2.47
2018-04-26T02:11:47.088Z,3.20
2018-04-26T02:14:13.797Z,2.70
2018-04-26T02:16:40.467Z,3.10
2018-04-26T02:19:07.210Z,2.60
2018-04-26T02:21:33.887Z,2.90
2018-04-26T02:24:00.682Z,2.50
2018-04-26T02:26:27.359Z,1.80
2018-04-26T02:28:54.052Z,2.40
2018-04-26T02:31:20.760Z,2.43
2018-04-26T02:33:47.520Z,3.03
2018-04-26T02:36:14.219Z,2.40
2018-04-26T02:38:40.895Z,2.80
2018-04-26T02:41:07.614Z,3.57
2018-04-26T02:43:34.369Z,2.63
2018-04-26T02:46:01.067Z,2.83
2018-04-26T02:48:27.760Z,2.83
2018-04-26T02:50:54.531Z,2.13
2018-04-26T02:53:21.331Z,3.10
2018-04-26T02:55:48.016Z,2.53
2018-04-26T02:58:14.691Z,3.93
2018-04-26T03:00:41.396Z,4.97
2018-04-26T03:03:08.068Z,2.87
2018-04-26T03:05:34.774Z,3.50
2018-04-26T03:08:01.461Z,3.40
2018-04-26T03:10:28.307Z,3.70
2018-04-26T03:12:55.012Z,3.70
2018-04-26T03:15:21.700Z,3.33
2018-04-26T03:17:48.396Z,3.03
2018-04-26T03:20:15.163Z,3.57
2018-04-26T03:22:41.864Z,4.17
2018-04-26T03:25:08.551Z,3.60
2018-04-26T03:27:35.251Z,3.70
2018-04-26T03:30:01.944Z,3.70
2018-04-26T03:32:28.775Z,3.27
2018-04-26T03:34:55.474Z,4.20
2018-04-26T03:37:22.151Z,4.07
2018-04-26T03:39:48.975Z,3.80
2018-04-26T03:42:15.648Z,3.37
2018-04-26T03:44:42.471Z,3.90
2018-04-26T03:47:09.164Z,4.60
2018-04-26T03:49:35.866Z,3.47
2018-04-26T03:52:02.550Z,3.13
2018-04-26T03:54:29.259Z,4.00
2018-04-26T03:56:55.952Z,3.23
2018-04-26T03:59:22.793Z,4.07
2018-04-26T04:01:55.280Z,3.80
2018-04-26T04:04:27.868Z,4.33
2018-04-26T04:06:54.557Z,3.93
2018-04-26T04:09:21.255Z,4.37
2018-04-26T04:11:47.935Z,4.90
2018-04-26T04:14:14.656Z,4.23
2018-04-26T04:16:41.468Z,4.40
2018-04-26T04:19:08.147Z,4.73
2018-04-26T04:21:34.827Z,4.20
2018-04-26T04:24:01.601Z,4.30
2018-04-26T04:26:28.311Z,4.90
2018-04-26T04:28:54.995Z,3.50
2018-04-26T04:31:21.724Z,4.70
2018-04-26T04:33:48.394Z,4.57
2018-04-26T04:36:15.099Z,4.40
2018-04-26T04:38:41.791Z,3.97
2018-04-26T04:41:08.468Z,5.00
2018-04-26T04:43:35.191Z,4.17
2018-04-26T04:46:02.014Z,3.73
2018-04-26T04:48:28.703Z,4.00
2018-04-26T04:50:55.371Z,3.80
2018-04-26T04:53:22.063Z,4.20
2018-04-26T04:55:48.743Z,4.10
2018-04-26T04:58:16.410Z,4.60
2018-04-26T05:00:43.108Z,5.27
2018-04-26T05:03:09.787Z,5.57
2018-04-26T05:05:36.480Z,5.17
2018-04-26T05:08:03.170Z,6.80
2018-04-26T05:10:29.860Z,5.53
2018-04-26T05:12:56.623Z,5.20
2018-04-26T05:15:23.363Z,4.93
2018-04-26T05:17:50.056Z,6.37
2018-04-26T05:20:16.746Z,6.57
2018-04-26T05:22:43.445Z,5.63
2018-04-26T05:25:10.149Z,6.73
2018-04-26T05:27:36.832Z,6.33
2018-04-26T05:30:03.533Z,7.37
2018-04-26T05:32:30.248Z,7.50
2018-04-26T05:34:56.943Z,6.80
2018-04-26T05:37:23.640Z,5.00
2018-04-26T05:39:50.493Z,11.20
2018-04-26T05:42:17.214Z,14.17
2018-04-26T05:44:44.081Z,13.53
2018-04-26T05:47:10.752Z,9.53
2018-04-26T05:49:37.429Z,7.50
2018-04-26T05:52:04.229Z,6.90
2018-04-26T05:54:30.907Z,9.70
2018-04-26T05:56:57.606Z,21.17
2018-04-26T05:59:24.279Z,17.03
2018-04-26T06:01:50.999Z,20.20
2018-04-26T06:04:17.738Z,20.90
2018-04-26T06:06:44.447Z,14.83
2018-04-26T06:09:11.153Z,13.83
2018-04-26T06:11:37.964Z,9.57
2018-04-26T06:14:04.680Z,6.77
2018-04-26T06:16:31.405Z,5.77
2018-04-26T06:18:58.099Z,5.70
2018-04-26T06:21:24.879Z,5.33
2018-04-26T06:23:51.562Z,5.00
2018-04-26T06:26:18.314Z,5.40
2018-04-26T06:28:44.992Z,5.90
2018-04-26T06:31:11.847Z,6.00
2018-04-26T06:33:38.504Z,3.80
2018-04-26T06:36:05.167Z,4.70
2018-04-26T06:38:31.888Z,3.33
2018-04-26T06:40:58.692Z,3.40
2018-04-26T06:43:25.386Z,3.40
2018-04-26T06:45:52.084Z,3.93
2018-04-26T06:48:18.801Z,4.13
2018-04-26T06:50:45.488Z,5.40
2018-04-26T06:53:12.187Z,5.47
2018-04-26T06:55:38.879Z,5.57
2018-04-26T06:58:05.597Z,6.80
2018-04-26T07:00:32.365Z,7.20
2018-04-26T07:02:58.968Z,7.10
2018-04-26T07:05:25.649Z,6.83
2018-04-26T07:07:52.457Z,6.83
2018-04-26T07:10:19.155Z,6.27
2018-04-26T07:12:45.824Z,6.27
2018-04-26T07:15:12.512Z,6.20
2018-04-26T07:17:39.225Z,6.13
2018-04-26T07:20:05.900Z,5.90
2018-04-26T07:22:32.599Z,6.30
2018-04-26T07:24:59.292Z,5.93
2018-04-26T07:27:25.997Z,5.23
2018-04-26T07:29:52.696Z,6.37
2018-04-26T07:32:19.371Z,6.47
2018-04-26T07:34:46.167Z,7.50
2018-04-26T07:37:12.804Z,8.37
2018-04-26T07:39:39.509Z,9.90
2018-04-26T07:42:06.187Z,9.57
2018-04-26T07:44:32.892Z,9.50
2018-04-26T07:46:59.589Z,11.20
2018-04-26T07:49:26.502Z,11.80
2018-04-26T07:51:53.256Z,13.30
2018-04-26T07:54:20.169Z,11.30
2018-04-26T07:56:46.853Z,12.97
2018-04-26T07:59:13.612Z,12.33
2018-04-26T08:01:40.351Z,12.83
2018-04-26T08:04:07.052Z,15.27
2018-04-26T08:06:33.742Z,11.60
2018-04-26T08:09:00.448Z,12.43
2018-04-26T08:11:27.146Z,13.20
2018-04-26T08:13:53.863Z,12.80
2018-04-26T08:16:20.567Z,11.77
2018-04-26T08:18:47.250Z,11.80
2018-04-26T08:21:13.975Z,11.73
2018-04-26T08:23:40.675Z,12.90
2018-04-26T08:26:07.385Z,11.53
2018-04-26T08:28:34.096Z,10.33
2018-04-26T08:31:00.872Z,11.40
2018-04-26T08:33:27.599Z,8.27
2018-04-26T08:35:54.317Z,10.53
2018-04-26T08:38:21.005Z,8.50
2018-04-26T08:40:47.706Z,10.30
2018-04-26T08:43:14.389Z,11.07
2018-04-26T08:45:41.077Z,9.80
2018-04-26T08:48:07.779Z,8.77
2018-04-26T08:50:34.460Z,8.30
2018-04-26T08:53:01.177Z,9.30
2018-04-26T08:55:27.872Z,7.50
2018-04-26T08:57:54.600Z,8.83
2018-04-26T09:00:21.286Z,7.00
2018-04-26T09:02:47.986Z,6.83
2018-04-26T09:05:14.689Z,6.43
2018-04-26T09:07:41.400Z,6.83
2018-04-26T09:10:08.095Z,5.90
2018-04-26T09:12:34.775Z,6.80
2018-04-26T09:15:01.482Z,6.83
2018-04-26T09:17:28.184Z,6.07
2018-04-26T09:19:54.883Z,5.80
2018-04-26T09:22:21.560Z,5.80
2018-04-26T09:24:48.331Z,5.20
2018-04-26T09:27:15.032Z,5.13
2018-04-26T09:29:41.704Z,4.90
2018-04-26T09:32:08.491Z,4.43
2018-04-26T09:34:35.202Z,5.40
2018-04-26T09:37:01.892Z,4.50
2018-04-26T09:39:28.564Z,4.50
2018-04-26T09:41:55.260Z,5.00
2018-04-26T09:44:21.948Z,5.17
2018-04-26T09:46:48.652Z,4.83
2018-04-26T09:49:15.348Z,4.40
2018-04-26T09:51:42.035Z,4.40
2018-04-26T09:54:08.711Z,4.80
2018-04-26T09:56:35.492Z,4.60
2018-04-26T09:59:02.171Z,3.70
2018-04-26T10:01:28.860Z,3.97
2018-04-26T10:03:55.540Z,3.93
2018-04-26T10:06:28.995Z,3.90
2018-04-26T10:08:55.705Z,4.20
2018-04-26T10:11:22.375Z,3.70
2018-04-26T10:13:49.075Z,3.80
2018-04-26T10:16:15.743Z,3.90
2018-04-26T10:18:42.463Z,3.90
2018-04-26T10:21:09.224Z,4.20
2018-04-26T10:23:35.868Z,4.20
2018-04-26T10:26:02.588Z,3.87
2018-04-26T10:28:29.380Z,4.73
2018-04-26T10:30:56.079Z,4.27
2018-04-26T10:33:23.073Z,4.30
2018-04-26T10:35:49.764Z,4.13
2018-04-26T10:38:16.437Z,4.60
2018-04-26T10:40:43.382Z,5.43
2018-04-26T10:43:10.043Z,4.20
2018-04-26T10:45:36.743Z,5.40
2018-04-26T10:48:03.431Z,4.60
2018-04-26T10:50:30.099Z,4.10
2018-04-26T10:52:56.807Z,4.47
2018-04-26T10:55:23.480Z,4.90
2018-04-26T10:57:50.180Z,3.90
2018-04-26T11:00:16.848Z,4.80
2018-04-26T11:02:43.733Z,4.40
2018-04-26T11:05:10.401Z,3.57
2018-04-26T11:07:37.084Z,3.80
2018-04-26T11:10:03.817Z,3.70
2018-04-26T11:12:30.554Z,3.87
2018-04-26T11:14:57.242Z,3.77
2018-04-26T11:17:23.911Z,3.70
2018-04-26T11:19:50.630Z,4.17
2018-04-26T11:22:17.317Z,3.87
2018-04-26T11:24:44.120Z,4.07
2018-04-26T11:27:10.916Z,4.40
2018-04-26T11:29:37.614Z,4.40
2018-04-26T11:32:04.292Z,4.00
2018-04-26T11:34:31.841Z,3.80
2018-04-26T11:36:58.552Z,4.23
2018-04-26T11:39:25.248Z,3.60
2018-04-26T11:41:51.992Z,3.30
2018-04-26T11:44:18.850Z,5.00
2018-04-26T11:46:45.558Z,3.87
2018-04-26T11:49:12.236Z,3.70
2018-04-26T11:51:38.995Z,3.93
2018-04-26T11:54:05.700Z,4.17
2018-04-26T11:56:32.476Z,4.13
2018-04-26T11:58:59.965Z,3.90
2018-04-26T12:01:26.667Z,3.90
2018-04-26T12:03:53.360Z,5.00
2018-04-26T12:06:20.043Z,3.77
2018-04-26T12:08:46.739Z,3.97
2018-04-26T12:11:13.494Z,3.83
2018-04-26T12:13:40.499Z,4.10
2018-04-26T12:16:07.172Z,3.57
2018-04-26T12:18:33.870Z,3.70
2018-04-26T12:21:00.567Z,4.53
2018-04-26T12:23:27.239Z,3.60
2018-04-26T12:25:53.938Z,3.90
2018-04-26T12:28:20.658Z,3.97
2018-04-26T12:30:47.372Z,5.50
2018-04-26T12:33:14.164Z,4.77
2018-04-26T12:35:40.952Z,4.63
2018-04-26T12:38:07.660Z,4.10
2018-04-26T12:40:34.363Z,3.30
2018-04-26T12:43:01.090Z,4.20
2018-04-26T12:45:27.784Z,3.57
2018-04-26T12:47:54.551Z,3.63
2018-04-26T12:50:21.279Z,3.77
2018-04-26T12:52:48.099Z,3.97
2018-04-26T12:55:14.869Z,3.70
2018-04-26T12:57:41.600Z,3.30
2018-04-26T13:00:08.325Z,3.60
2018-04-26T13:02:35.059Z,4.30
2018-04-26T13:05:01.892Z,3.93
2018-04-26T13:07:28.548Z,4.67
2018-04-26T13:09:55.362Z,4.50
2018-04-26T13:12:22.040Z,5.00
2018-04-26T13:14:48.784Z,4.40
2018-04-26T13:17:15.578Z,5.13
2018-04-26T13:19:42.184Z,5.63
2018-04-26T13:22:08.899Z,5.43
2018-04-26T13:24:35.593Z,5.07
2018-04-26T13:27:02.301Z,4.57
2018-04-26T13:29:28.976Z,4.83
2018-04-26T13:31:55.691Z,5.00
2018-04-26T13:34:22.373Z,4.20
2018-04-26T13:36:49.165Z,4.03
2018-04-26T13:39:15.871Z,4.40
2018-04-26T13:41:42.590Z,5.03
2018-04-26T13:44:09.264Z,5.43
2018-04-26T13:46:35.998Z,5.80
2018-04-26T13:49:04.172Z,5.33
2018-04-26T13:51:30.863Z,10.87
2018-04-26T13:53:57.776Z,9.83
2018-04-26T13:56:24.473Z,5.27
2018-04-26T13:58:51.546Z,5.50
2018-04-26T14:01:18.764Z,4.80
2018-04-26T14:03:45.476Z,4.90
2018-04-26T14:06:12.168Z,4.97
2018-04-26T14:08:38.889Z,8.53
2018-04-26T14:11:05.652Z,14.43
2018-04-26T14:13:32.377Z,15.77
2018-04-26T14:15:59.102Z,8.20
2018-04-26T14:18:25.804Z,7.13
2018-04-26T14:20:52.503Z,5.40
2018-04-26T14:23:19.297Z,6.37
2018-04-26T14:25:45.935Z,5.50
2018-04-26T14:28:12.614Z,4.00
2018-04-26T14:30:39.340Z,2.40
2018-04-26T14:33:06.024Z,3.47
2018-04-26T14:35:33.178Z,3.87
2018-04-26T14:37:59.872Z,3.60
2018-04-26T14:40:26.608Z,3.70
2018-04-26T14:42:53.399Z,3.27
2018-04-26T14:45:20.235Z,3.57
2018-04-26T14:47:47.181Z,3.33
2018-04-26T14:50:13.896Z,3.40
2018-04-26T14:52:40.689Z,3.67
2018-04-26T14:55:08.772Z,3.50
2018-04-26T14:57:37.746Z,4.00
2018-04-26T15:00:04.442Z,6.27
2018-04-26T15:02:31.243Z,7.10
2018-04-26T15:04:58.028Z,4.00
2018-04-26T15:07:24.706Z,3.97
2018-04-26T15:09:51.441Z,5.70
2018-04-26T15:12:18.144Z,4.30
2018-04-26T15:14:44.868Z,5.33
2018-04-26T15:17:11.549Z,6.33
2018-04-26T15:19:38.236Z,7.30
2018-04-26T15:22:06.609Z,3.83
2018-04-26T15:24:33.343Z,3.83
2018-04-26T15:27:00.150Z,3.73
2018-04-26T15:29:26.857Z,3.60
2018-04-26T15:31:53.722Z,4.43
2018-04-26T15:34:21.130Z,3.30
2018-04-26T15:36:47.866Z,4.10
2018-04-26T15:39:14.560Z,4.87
2018-04-26T15:41:41.275Z,5.10
2018-04-26T15:44:07.952Z,4.00
2018-04-26T15:46:34.656Z,5.90
2018-04-26T15:49:01.364Z,4.10
2018-04-26T15:51:28.095Z,5.37
2018-04-26T15:54:00.508Z,4.53
2018-04-26T15:56:33.012Z,4.20
2018-04-26T15:59:05.578Z,4.90
2018-04-26T16:01:51.023Z,4.00
2018-04-26T16:04:23.497Z,4.53
2018-04-26T16:06:56.064Z,3.37
2018-04-26T16:09:28.660Z,3.10
2018-04-26T16:12:01.060Z,3.00
2018-04-26T16:14:33.563Z,2.70
2018-04-26T16:17:34.767Z,2.80
2018-04-26T16:20:13.173Z,3.20
2018-04-26T16:22:51.597Z,3.43
2018-04-26T16:25:21.175Z,2.97
2018-04-26T16:27:53.630Z,3.23
2018-04-26T16:30:26.258Z,3.87
2018-04-26T16:33:05.075Z,3.70
2018-04-26T16:35:37.623Z,2.80
2018-04-26T16:38:14.180Z,3.60
2018-04-26T16:40:40.913Z,3.50
2018-04-26T16:43:07.927Z,4.30
2018-04-26T16:45:34.621Z,3.43
2018-04-26T16:48:01.316Z,3.33
2018-04-26T16:50:28.024Z,3.77
2018-04-26T16:52:54.734Z,3.10
2018-04-26T16:55:21.429Z,3.53
2018-04-26T16:57:48.145Z,3.30
2018-04-26T17:00:14.849Z,3.53
2018-04-26T17:02:41.529Z,2.97
2018-04-26T17:05:08.224Z,3.27
2018-04-26T17:07:35.101Z,2.53
2018-04-26T17:10:01.810Z,2.80
2018-04-26T17:12:28.587Z,2.47
2018-04-26T17:14:55.272Z,2.70
2018-04-26T17:17:21.990Z,3.00
2018-04-26T17:19:48.764Z,2.30
2018-04-26T17:22:15.466Z,2.10
2018-04-26T17:24:42.171Z,3.00
2018-04-26T17:27:08.900Z,3.77
2018-04-26T17:29:35.605Z,4.00
2018-04-26T17:32:02.288Z,4.33
2018-04-26T17:34:28.986Z,6.57
2018-04-26T17:36:55.702Z,7.97
2018-04-26T17:39:22.568Z,7.20
2018-04-26T17:41:49.275Z,6.87
2018-04-26T17:44:16.188Z,4.17
2018-04-26T17:46:42.912Z,3.77
2018-04-26T17:49:09.689Z,2.83
2018-04-26T17:51:36.377Z,2.80
2018-04-26T17:54:03.150Z,3.57
2018-04-26T17:56:29.951Z,2.50
2018-04-26T17:58:56.680Z,2.70
2018-04-26T18:01:23.382Z,3.30
2018-04-26T18:03:50.130Z,2.80
2018-04-26T18:06:16.825Z,3.27
2018-04-26T18:08:43.526Z,2.90
2018-04-26T18:11:10.223Z,3.37
2018-04-26T18:13:37.017Z,3.70
2018-04-26T18:16:03.706Z,3.20
2018-04-26T18:18:30.524Z,3.00
2018-04-26T18:20:57.236Z,3.43
2018-04-26T18:23:24.005Z,3.33
2018-04-26T18:25:50.723Z,3.70
2018-04-26T18:28:17.539Z,3.73
2018-04-26T18:30:44.261Z,4.20
2018-04-26T18:33:10.958Z,3.83
2018-04-26T18:35:37.669Z,3.43
2018-04-26T18:38:04.424Z,4.20
2018-04-26T18:40:31.145Z,3.97
2018-04-26T18:42:57.842Z,3.90
2018-04-26T18:45:24.545Z,4.10
2018-04-26T18:47:51.279Z,3.73
2018-04-26T18:50:17.985Z,3.83
2018-04-26T18:52:44.748Z,3.87
2018-04-26T18:55:11.484Z,3.57
2018-04-26T18:57:38.386Z,3.53
2018-04-26T19:00:05.103Z,4.00
2018-04-26T19:02:31.849Z,4.57
2018-04-26T19:04:58.568Z,4.47
2018-04-26T19:07:25.426Z,3.63
2018-04-26T19:09:52.156Z,3.00
2018-04-26T19:12:19.025Z,3.50
2018-04-26T19:14:45.715Z,3.53
2018-04-26T19:17:12.399Z,3.30
2018-04-26T19:19:39.108Z,3.43
2018-04-26T19:22:05.841Z,3.30
2018-04-26T19:24:32.552Z,4.17
2018-04-26T19:26:59.261Z,3.17
2018-04-26T19:29:26.028Z,3.30
2018-04-26T19:31:52.724Z,3.63
2018-04-26T19:34:19.433Z,3.53
2018-04-26T19:36:46.145Z,3.23
2018-04-26T19:39:12.957Z,3.50
2018-04-26T19:41:39.657Z,3.10
2018-04-26T19:44:06.358Z,3.53
2018-04-26T19:46:33.066Z,4.17
2018-04-26T19:48:59.748Z,3.13
2018-04-26T19:51:26.467Z,2.93
2018-04-26T19:53:53.175Z,3.20
2018-04-26T19:56:19.851Z,3.40
2018-04-26T19:58:46.661Z,3.50
2018-04-26T20:01:13.358Z,3.10
2018-04-26T20:03:40.067Z,2.93
2018-04-26T20:06:06.804Z,4.10
2018-04-26T20:08:33.487Z,4.07
2018-04-26T20:11:00.164Z,3.77
2018-04-26T20:13:26.881Z,3.00
2018-04-26T20:15:53.668Z,3.73
2018-04-26T20:18:20.463Z,3.20
2018-04-26T20:20:47.154Z,3.53
2018-04-26T20:23:13.860Z,3.53
2018-04-26T20:25:40.586Z,4.00
2018-04-26T20:28:07.277Z,3.60
2018-04-26T20:30:34.000Z,4.83
2018-04-26T20:33:00.720Z,3.80
2018-04-26T20:35:27.432Z,4.37
2018-04-26T20:37:54.134Z,3.90
2018-04-26T20:40:20.852Z,4.20
2018-04-26T20:42:47.552Z,4.50
2018-04-26T20:45:14.480Z,3.90
2018-04-26T20:47:41.203Z,3.60
2018-04-26T20:50:07.882Z,3.87
2018-04-26T20:52:34.568Z,5.00
2018-04-26T20:55:01.277Z,3.50
2018-04-26T20:57:27.955Z,3.27
2018-04-26T20:59:54.740Z,3.23
2018-04-26T21:02:21.460Z,5.33
2018-04-26T21:04:48.132Z,3.50
2018-04-26T21:07:14.815Z,4.73
2018-04-26T21:09:41.526Z,4.17
2018-04-26T21:12:08.219Z,3.90
2018-04-26T21:14:34.916Z,4.30
2018-04-26T21:17:01.601Z,3.67
2018-04-26T21:19:28.273Z,4.23
2018-04-26T21:21:55.111Z,4.27
2018-04-26T21:24:21.804Z,4.07
2018-04-26T21:26:48.576Z,3.77
2018-04-26T21:29:15.278Z,4.77
2018-04-26T21:31:41.985Z,4.67
2018-04-26T21:34:08.696Z,4.60
2018-04-26T21:36:35.396Z,4.47
2018-04-26T21:39:02.065Z,4.00
2018-04-26T21:41:28.760Z,3.40
2018-04-26T21:43:55.458Z,4.00
2018-04-26T21:46:22.168Z,4.13
2018-04-26T21:48:48.852Z,5.00
2018-04-26T21:51:21.493Z,4.73
2018-04-26T21:53:53.995Z,4.13
2018-04-26T21:56:26.519Z,3.80
2018-04-26T21:58:58.953Z,4.20
2018-04-26T22:01:31.424Z,3.73
2018-04-26T22:03:59.047Z,4.20
2018-04-26T22:06:25.710Z,4.17
2018-04-26T22:08:52.408Z,3.60
2018-04-26T22:11:19.111Z,4.57
2018-04-26T22:13:45.790Z,4.50
2018-04-26T22:16:12.495Z,3.17
2018-04-26T22:18:39.235Z,2.77
2018-04-26T22:21:05.940Z,2.20
2018-04-26T22:23:32.612Z,2.37
2018-04-26T22:25:59.307Z,2.80
2018-04-26T22:28:26.009Z,2.30
2018-04-26T22:30:52.683Z,2.10
2018-04-26T22:33:19.380Z,3.20
2018-04-26T22:35:46.063Z,3.30
2018-04-26T22:38:12.760Z,3.37
2018-04-26T22:40:39.568Z,3.67
2018-04-26T22:43:06.238Z,4.90
2018-04-26T22:45:32.954Z,2.43
2018-04-26T22:47:59.632Z,2.67
2018-04-26T22:50:26.467Z,2.27
2018-04-26T22:52:53.178Z,3.30
2018-04-26T22:55:19.916Z,3.73
2018-04-26T22:57:46.603Z,3.20
2018-04-26T23:00:13.307Z,2.60
2018-04-26T23:02:39.979Z,2.70
2018-04-26T23:05:06.673Z,3.00
2018-04-26T23:07:33.372Z,3.60
2018-04-26T23:10:00.047Z,3.30
2018-04-26T23:12:26.744Z,2.20
2018-04-26T23:14:53.419Z,2.73
2018-04-26T23:17:20.143Z,3.50
2018-04-26T23:19:46.831Z,2.90
2018-04-26T23:22:13.527Z,2.83
2018-04-26T23:24:40.193Z,3.30
2018-04-26T23:27:06.875Z,3.60
2018-04-26T23:29:33.559Z,3.50
2018-04-26T23:32:00.239Z,3.50
2018-04-26T23:34:26.920Z,2.97
2018-04-26T23:36:53.610Z,4.10
2018-04-26T23:39:20.280Z,3.90
2018-04-26T23:41:46.992Z,2.83
2018-04-26T23:44:13.667Z,1.73
2018-04-26T23:46:40.359Z,2.27
2018-04-26T23:49:07.167Z,2.37
2018-04-26T23:51:33.823Z,2.77
2018-04-26T23:54:00.497Z,2.90
2018-04-26T23:56:27.201Z,3.00
2018-04-26T23:58:53.895Z,2.60
